createdAt,value
2019-03-13T00:00:00.786Z,19.09
2019-03-13T00:01:00.838Z,19.09
2019-03-13T00:02:00.673Z,19.09
2019-03-13T00:03:00.744Z,19.1
2019-03-13T00:04:00.493Z,19.1
2019-03-13T00:05:00.739Z,19.09
2019-03-13T00:06:01.025Z,19.08
2019-03-13T00:07:00.519Z,19.09
2019-03-13T00:08:00.676Z,19.09
2019-03-13T00:09:00.715Z,19.08
2019-03-13T00:10:00.560Z,19.06
2019-03-13T00:11:00.759Z,19.07
2019-03-13T00:12:00.712Z,19.07
2019-03-13T00:13:00.908Z,19.05
2019-03-13T00:14:00.583Z,19.05
2019-03-13T00:15:00.841Z,19.04
2019-03-13T00:16:00.638Z,19.03
2019-03-13T00:17:00.803Z,19.03
2019-03-13T00:18:00.620Z,19.03
2019-03-13T00:19:00.647Z,19.02
2019-03-13T00:20:00.796Z,19.02
2019-03-13T00:21:00.634Z,19.03
2019-03-13T00:22:00.743Z,19.02
2019-03-13T00:23:00.783Z,19.01
2019-03-13T00:24:00.593Z,19
2019-03-13T00:25:00.943Z,18.99
2019-03-13T00:26:00.829Z,19
2019-03-13T00:27:00.682Z,19
2019-03-13T00:28:00.681Z,18.99
2019-03-13T00:29:00.599Z,19
2019-03-13T00:30:02.175Z,18.99
2019-03-13T00:31:00.780Z,18.97
2019-03-13T00:32:00.520Z,18.97
2019-03-13T00:33:00.695Z,18.97
2019-03-13T00:34:00.986Z,18.96
2019-03-13T00:35:00.541Z,18.97
2019-03-13T00:36:00.682Z,18.96
2019-03-13T00:37:00.816Z,18.95
2019-03-13T00:38:00.556Z,18.95
2019-03-13T00:39:00.752Z,18.95
2019-03-13T00:40:00.786Z,18.93
2019-03-13T00:41:00.601Z,18.93
2019-03-13T00:42:00.707Z,18.94
2019-03-13T00:43:00.873Z,18.94
2019-03-13T00:44:00.737Z,18.92
2019-03-13T00:45:01.070Z,18.93
2019-03-13T00:46:00.975Z,18.93
2019-03-13T00:47:00.570Z,18.92
2019-03-13T00:48:00.718Z,18.91
2019-03-13T00:49:00.503Z,18.93
2019-03-13T00:50:00.738Z,18.92
2019-03-13T00:51:00.779Z,18.92
2019-03-13T00:52:00.608Z,18.91
2019-03-13T00:53:00.570Z,18.92
2019-03-13T00:54:00.719Z,18.91
2019-03-13T00:55:00.520Z,18.9
2019-03-13T00:56:00.577Z,18.9
2019-03-13T00:57:00.786Z,18.9
2019-03-13T00:58:00.607Z,18.9
2019-03-13T00:59:00.604Z,18.9
2019-03-13T01:00:00.857Z,18.89
2019-03-13T01:01:04.108Z,18.89
2019-03-13T01:02:00.754Z,18.89
2019-03-13T01:03:00.762Z,18.88
2019-03-13T01:04:03.250Z,18.88
2019-03-13T01:05:00.664Z,18.87
2019-03-13T01:06:00.836Z,18.87
2019-03-13T01:07:00.562Z,18.87
2019-03-13T01:08:00.673Z,18.87
2019-03-13T01:09:00.767Z,18.85
2019-03-13T01:10:00.617Z,18.85
2019-03-13T01:11:00.500Z,18.84
2019-03-13T01:12:00.785Z,18.84
2019-03-13T01:13:00.664Z,18.83
2019-03-13T01:14:00.910Z,18.83
2019-03-13T01:15:00.616Z,18.84
2019-03-13T01:16:00.654Z,18.84
2019-03-13T01:17:00.804Z,18.84
2019-03-13T01:18:00.575Z,18.83
2019-03-13T01:19:00.788Z,18.83
2019-03-13T01:20:00.824Z,18.82
2019-03-13T01:21:00.548Z,18.82
2019-03-13T01:22:00.692Z,18.82
2019-03-13T01:23:00.521Z,18.81
2019-03-13T01:24:00.886Z,18.8
2019-03-13T01:25:00.758Z,18.8
2019-03-13T01:26:00.541Z,18.8
2019-03-13T01:27:00.473Z,18.8
2019-03-13T01:28:00.719Z,18.79
2019-03-13T01:29:00.581Z,18.79
2019-03-13T01:30:00.617Z,18.79
2019-03-13T01:31:00.513Z,18.79
2019-03-13T01:32:00.641Z,18.78
2019-03-13T01:33:00.585Z,18.78
2019-03-13T01:34:00.927Z,18.78
2019-03-13T01:35:00.567Z,18.78
2019-03-13T01:36:00.631Z,18.78
2019-03-13T01:37:00.784Z,18.77
2019-03-13T01:38:00.781Z,18.77
2019-03-13T01:39:01.253Z,18.77
2019-03-13T01:40:00.777Z,18.76
2019-03-13T01:41:00.624Z,18.75
2019-03-13T01:42:00.625Z,18.76
2019-03-13T01:43:00.801Z,18.75
2019-03-13T01:44:00.658Z,18.74
2019-03-13T01:45:00.636Z,18.74
2019-03-13T01:46:00.610Z,18.74
2019-03-13T01:47:00.601Z,18.73
2019-03-13T01:48:00.650Z,18.73
2019-03-13T01:49:00.480Z,18.73
2019-03-13T01:50:00.660Z,18.72
2019-03-13T01:51:00.655Z,18.72
2019-03-13T01:52:00.530Z,18.72
2019-03-13T01:53:00.654Z,18.72
2019-03-13T01:54:00.821Z,18.72
2019-03-13T01:55:00.588Z,18.72
2019-03-13T01:56:00.735Z,18.71
2019-03-13T01:57:00.733Z,18.71
2019-03-13T01:58:00.679Z,18.7
2019-03-13T01:59:00.524Z,18.71
2019-03-13T02:00:00.786Z,18.7
2019-03-13T02:01:00.712Z,18.7
2019-03-13T02:02:00.734Z,18.69
2019-03-13T02:03:00.587Z,18.69
2019-03-13T02:04:00.678Z,18.69
2019-03-13T02:05:00.751Z,18.69
2019-03-13T02:06:00.577Z,18.68
2019-03-13T02:07:00.631Z,18.68
2019-03-13T02:08:00.745Z,18.68
2019-03-13T02:09:00.574Z,18.67
2019-03-13T02:10:00.574Z,18.67
2019-03-13T02:11:00.803Z,18.66
2019-03-13T02:12:00.676Z,18.66
2019-03-13T02:13:00.785Z,18.66
2019-03-13T02:14:00.604Z,18.66
2019-03-13T02:15:00.638Z,18.66
2019-03-13T02:16:00.791Z,18.66
2019-03-13T02:17:00.546Z,18.66
2019-03-13T02:18:00.482Z,18.66
2019-03-13T02:19:00.681Z,18.65
2019-03-13T02:20:00.641Z,18.65
2019-03-13T02:21:00.618Z,18.64
2019-03-13T02:22:00.775Z,18.64
2019-03-13T02:23:00.641Z,18.64
2019-03-13T02:24:00.648Z,18.63
2019-03-13T02:25:00.808Z,18.63
2019-03-13T02:26:00.557Z,18.64
2019-03-13T02:27:00.612Z,18.63
2019-03-13T02:28:00.800Z,18.62
2019-03-13T02:29:00.585Z,18.62
2019-03-13T02:30:01.174Z,18.62
2019-03-13T02:31:00.599Z,18.61
2019-03-13T02:32:00.847Z,18.62
2019-03-13T02:33:00.744Z,18.61
2019-03-13T02:34:00.612Z,18.61
2019-03-13T02:35:00.582Z,18.6
2019-03-13T02:36:00.837Z,18.6
2019-03-13T02:37:00.533Z,18.6
2019-03-13T02:38:00.511Z,18.6
2019-03-13T02:39:00.693Z,18.59
2019-03-13T02:40:00.989Z,18.59
2019-03-13T02:41:00.632Z,18.59
2019-03-13T02:42:00.784Z,18.59
2019-03-13T02:43:00.637Z,18.59
2019-03-13T02:44:00.688Z,18.59
2019-03-13T02:45:01.103Z,18.59
2019-03-13T02:46:00.681Z,18.59
2019-03-13T02:47:00.775Z,18.59
2019-03-13T02:48:00.508Z,18.57
2019-03-13T02:49:00.595Z,18.57
2019-03-13T02:50:00.716Z,18.57
2019-03-13T02:51:00.780Z,18.56
2019-03-13T02:52:00.549Z,18.56
2019-03-13T02:53:00.790Z,18.56
2019-03-13T02:54:00.521Z,18.56
2019-03-13T02:55:00.672Z,18.56
2019-03-13T02:56:00.514Z,18.55
2019-03-13T02:57:00.547Z,18.55
2019-03-13T02:58:00.993Z,18.55
2019-03-13T02:59:00.639Z,18.55
2019-03-13T03:00:00.742Z,18.55
2019-03-13T03:01:00.964Z,18.54
2019-03-13T03:02:00.545Z,18.54
2019-03-13T03:03:00.500Z,18.54
2019-03-13T03:04:00.724Z,18.54
2019-03-13T03:05:00.669Z,18.54
2019-03-13T03:06:01.041Z,18.54
2019-03-13T03:07:01.155Z,18.54
2019-03-13T03:08:00.614Z,18.53
2019-03-13T03:09:00.628Z,18.52
2019-03-13T03:10:00.779Z,18.52
2019-03-13T03:11:00.621Z,18.52
2019-03-13T03:12:00.649Z,18.51
2019-03-13T03:13:00.539Z,18.52
2019-03-13T03:14:00.564Z,18.52
2019-03-13T03:15:00.720Z,18.51
2019-03-13T03:16:00.574Z,18.51
2019-03-13T03:17:00.575Z,18.5
2019-03-13T03:18:00.639Z,18.51
2019-03-13T03:19:00.460Z,18.5
2019-03-13T03:20:00.913Z,18.5
2019-03-13T03:21:00.722Z,18.5
2019-03-13T03:22:00.516Z,18.49
2019-03-13T03:23:00.659Z,18.49
2019-03-13T03:24:00.661Z,18.48
2019-03-13T03:25:01.154Z,18.49
2019-03-13T03:26:00.752Z,18.48
2019-03-13T03:27:00.836Z,18.49
2019-03-13T03:28:00.541Z,18.48
2019-03-13T03:29:00.813Z,18.48
2019-03-13T03:30:01.530Z,18.48
2019-03-13T03:31:00.566Z,18.48
2019-03-13T03:32:00.708Z,18.48
2019-03-13T03:33:00.868Z,18.48
2019-03-13T03:34:01.305Z,18.48
2019-03-13T03:35:02.171Z,18.48
2019-03-13T03:36:00.545Z,18.48
2019-03-13T03:37:00.686Z,18.47
2019-03-13T03:38:00.690Z,18.47
2019-03-13T03:39:00.591Z,18.46
2019-03-13T03:40:00.687Z,18.45
2019-03-13T03:41:00.864Z,18.46
2019-03-13T03:42:00.630Z,18.45
2019-03-13T03:43:00.509Z,18.45
2019-03-13T03:44:00.809Z,18.44
2019-03-13T03:45:00.850Z,18.44
2019-03-13T03:46:00.997Z,18.43
2019-03-13T03:47:00.720Z,18.43
2019-03-13T03:48:00.641Z,18.43
2019-03-13T03:49:00.746Z,18.43
2019-03-13T03:50:01.015Z,18.43
2019-03-13T03:51:00.809Z,18.43
2019-03-13T03:52:00.883Z,18.42
2019-03-13T03:53:00.572Z,18.42
2019-03-13T03:54:00.725Z,18.42
2019-03-13T03:55:00.949Z,18.42
2019-03-13T03:56:00.470Z,18.42
2019-03-13T03:57:00.612Z,18.42
2019-03-13T03:58:00.814Z,18.41
2019-03-13T03:59:00.584Z,18.41
2019-03-13T04:00:00.756Z,18.41
2019-03-13T04:01:00.682Z,18.41
2019-03-13T04:02:00.513Z,18.41
2019-03-13T04:03:00.749Z,18.41
2019-03-13T04:04:00.647Z,18.41
2019-03-13T04:05:01.034Z,18.4
2019-03-13T04:06:00.656Z,18.41
2019-03-13T04:07:00.443Z,18.41
2019-03-13T04:08:00.641Z,18.41
2019-03-13T04:09:00.741Z,18.41
2019-03-13T04:10:00.649Z,18.41
2019-03-13T04:11:00.477Z,18.41
2019-03-13T04:12:00.856Z,18.41
2019-03-13T04:13:00.670Z,18.41
2019-03-13T04:14:00.656Z,18.43
2019-03-13T04:15:00.671Z,18.43
2019-03-13T04:16:00.446Z,18.44
2019-03-13T04:17:00.634Z,18.45
2019-03-13T04:18:00.681Z,18.45
2019-03-13T04:19:00.474Z,18.46
2019-03-13T04:20:00.968Z,18.48
2019-03-13T04:21:00.732Z,18.48
2019-03-13T04:22:00.489Z,18.49
2019-03-13T04:23:00.584Z,18.51
2019-03-13T04:24:00.720Z,18.52
2019-03-13T04:25:00.742Z,18.53
2019-03-13T04:26:00.675Z,18.54
2019-03-13T04:27:00.743Z,18.55
2019-03-13T04:28:00.519Z,18.56
2019-03-13T04:29:00.623Z,18.57
2019-03-13T04:30:01.088Z,18.58
2019-03-13T04:31:00.491Z,18.6
2019-03-13T04:32:00.644Z,18.6
2019-03-13T04:33:00.697Z,18.62
2019-03-13T04:34:00.506Z,18.62
2019-03-13T04:35:01.023Z,18.63
2019-03-13T04:36:00.880Z,18.64
2019-03-13T04:37:00.573Z,18.65
2019-03-13T04:38:00.662Z,18.66
2019-03-13T04:39:00.744Z,18.67
2019-03-13T04:40:00.615Z,18.69
2019-03-13T04:41:00.605Z,18.69
2019-03-13T04:42:00.708Z,18.71
2019-03-13T04:43:00.555Z,18.72
2019-03-13T04:44:00.707Z,18.73
2019-03-13T04:45:00.519Z,18.74
2019-03-13T04:46:00.587Z,18.78
2019-03-13T04:47:00.670Z,18.78
2019-03-13T04:48:00.536Z,18.81
2019-03-13T04:49:00.563Z,18.8
2019-03-13T04:50:00.763Z,18.81
2019-03-13T04:51:00.506Z,18.83
2019-03-13T04:52:00.691Z,18.84
2019-03-13T04:53:00.740Z,18.84
2019-03-13T04:54:00.504Z,18.85
2019-03-13T04:55:00.674Z,18.86
2019-03-13T04:56:00.484Z,18.88
2019-03-13T04:57:00.994Z,18.89
2019-03-13T04:58:00.718Z,18.9
2019-03-13T04:59:00.504Z,18.91
2019-03-13T05:00:00.525Z,18.93
2019-03-13T05:01:00.682Z,18.94
2019-03-13T05:02:00.492Z,18.95
2019-03-13T05:03:00.829Z,18.97
2019-03-13T05:04:00.613Z,18.98
2019-03-13T05:05:00.530Z,18.98
2019-03-13T05:06:00.643Z,19
2019-03-13T05:07:00.749Z,19.01
2019-03-13T05:08:00.525Z,19.02
2019-03-13T05:09:00.588Z,19.03
2019-03-13T05:10:00.642Z,19.04
2019-03-13T05:11:00.856Z,19.06
2019-03-13T05:12:00.635Z,19.07
2019-03-13T05:13:00.736Z,19.08
2019-03-13T05:14:00.575Z,19.09
2019-03-13T05:15:00.609Z,19.1
2019-03-13T05:16:00.439Z,19.11
2019-03-13T05:17:00.620Z,19.12
2019-03-13T05:18:00.585Z,19.14
2019-03-13T05:19:00.531Z,19.15
2019-03-13T05:20:00.665Z,19.15
2019-03-13T05:21:00.705Z,19.17
2019-03-13T05:22:00.411Z,19.18
2019-03-13T05:23:00.545Z,19.2
2019-03-13T05:24:00.708Z,19.21
2019-03-13T05:25:00.682Z,19.21
2019-03-13T05:26:00.640Z,19.22
2019-03-13T05:27:00.717Z,19.23
2019-03-13T05:28:00.432Z,19.24
2019-03-13T05:29:00.779Z,19.21
2019-03-13T05:30:00.976Z,19.15
2019-03-13T05:31:00.504Z,19.07
2019-03-13T05:32:00.612Z,19.03
2019-03-13T05:33:00.593Z,18.97
2019-03-13T05:34:00.466Z,18.94
2019-03-13T05:35:00.671Z,18.87
2019-03-13T05:36:00.704Z,18.82
2019-03-13T05:37:00.527Z,18.84
2019-03-13T05:38:00.627Z,18.87
2019-03-13T05:39:00.474Z,18.9
2019-03-13T05:40:00.648Z,18.93
2019-03-13T05:41:00.922Z,18.95
2019-03-13T05:42:00.749Z,18.97
2019-03-13T05:43:00.739Z,18.99
2019-03-13T05:44:00.585Z,19.01
2019-03-13T05:45:00.577Z,19.03
2019-03-13T05:46:00.604Z,19.06
2019-03-13T05:47:00.445Z,19.07
2019-03-13T05:48:00.560Z,19.08
2019-03-13T05:49:00.609Z,19.09
2019-03-13T05:50:00.785Z,19.09
2019-03-13T05:51:00.553Z,19.1
2019-03-13T05:52:00.811Z,19.11
2019-03-13T05:53:00.455Z,19.11
2019-03-13T05:54:00.590Z,19.13
2019-03-13T05:55:00.632Z,19.13
2019-03-13T05:56:00.591Z,19.14
2019-03-13T05:57:00.585Z,19.15
2019-03-13T05:58:00.726Z,19.15
2019-03-13T05:59:00.458Z,19.15
2019-03-13T06:00:00.699Z,19.15
2019-03-13T06:01:00.634Z,19.15
2019-03-13T06:02:00.468Z,19.16
2019-03-13T06:03:00.614Z,19.16
2019-03-13T06:04:00.528Z,19.15
2019-03-13T06:05:00.737Z,19.16
2019-03-13T06:06:00.639Z,19.16
2019-03-13T06:07:00.760Z,19.17
2019-03-13T06:08:00.493Z,19.16
2019-03-13T06:09:00.647Z,19.16
2019-03-13T06:10:00.869Z,19.16
2019-03-13T06:11:00.541Z,19.17
2019-03-13T06:12:01.727Z,19.16
2019-03-13T06:13:00.547Z,19.16
2019-03-13T06:14:00.530Z,19.16
2019-03-13T06:15:04.073Z,19.17
2019-03-13T06:16:00.450Z,19.16
2019-03-13T06:17:00.574Z,19.16
2019-03-13T06:18:00.724Z,19.16
2019-03-13T06:19:00.515Z,19.16
2019-03-13T06:20:00.806Z,19.16
2019-03-13T06:21:00.355Z,19.16
2019-03-13T06:22:00.619Z,19.15
2019-03-13T06:23:00.693Z,19.15
2019-03-13T06:24:00.422Z,19.15
2019-03-13T06:25:00.577Z,19.15
2019-03-13T06:26:00.574Z,19.15
2019-03-13T06:27:00.424Z,19.15
2019-03-13T06:28:00.552Z,19.15
2019-03-13T06:29:00.566Z,19.15
2019-03-13T06:30:00.695Z,19.15
2019-03-13T06:31:00.615Z,19.15
2019-03-13T06:32:00.582Z,19.14
2019-03-13T06:33:00.545Z,19.14
2019-03-13T06:34:00.542Z,19.14
2019-03-13T06:35:00.848Z,19.13
2019-03-13T06:36:00.541Z,19.13
2019-03-13T06:37:00.642Z,19.13
2019-03-13T06:38:00.677Z,19.12
2019-03-13T06:39:00.613Z,19.12
2019-03-13T06:40:00.710Z,19.12
2019-03-13T06:41:00.525Z,19.12
2019-03-13T06:42:00.452Z,19.12
2019-03-13T06:43:00.577Z,19.11
2019-03-13T06:44:00.409Z,19.11
2019-03-13T06:45:00.531Z,19.11
2019-03-13T06:46:00.642Z,19.11
2019-03-13T06:47:00.589Z,19.1
2019-03-13T06:48:00.560Z,19.1
2019-03-13T06:49:01.025Z,19.1
2019-03-13T06:50:00.622Z,19.1
2019-03-13T06:51:00.522Z,19.09
2019-03-13T06:52:00.732Z,19.09
2019-03-13T06:53:00.467Z,19.09
2019-03-13T06:54:00.495Z,19.09
2019-03-13T06:55:01.054Z,19.09
2019-03-13T06:56:00.570Z,19.08
2019-03-13T06:57:00.649Z,19.08
2019-03-13T06:58:00.468Z,19.07
2019-03-13T06:59:00.538Z,19.07
2019-03-13T07:00:00.546Z,19.06
2019-03-13T07:01:00.438Z,19.06
2019-03-13T07:02:00.562Z,19.06
2019-03-13T07:03:00.587Z,19.06
2019-03-13T07:04:00.366Z,19.05
2019-03-13T07:05:00.755Z,19.05
2019-03-13T07:06:00.723Z,19.05
2019-03-13T07:07:00.407Z,19.04
2019-03-13T07:08:00.642Z,19.04
2019-03-13T07:09:00.902Z,19.04
2019-03-13T07:10:00.464Z,19.04
2019-03-13T07:11:00.594Z,19.03
2019-03-13T07:12:00.346Z,19.04
2019-03-13T07:13:00.550Z,19.04
2019-03-13T07:14:00.546Z,19.03
2019-03-13T07:15:00.629Z,19.03
2019-03-13T07:16:00.557Z,19.03
2019-03-13T07:17:00.648Z,19.03
2019-03-13T07:18:00.853Z,19.03
2019-03-13T07:19:00.555Z,19.03
2019-03-13T07:20:00.822Z,19.03
2019-03-13T07:21:00.424Z,19.03
2019-03-13T07:22:00.451Z,19.03
2019-03-13T07:23:00.593Z,19.02
2019-03-13T07:24:00.473Z,19.01
2019-03-13T07:25:00.612Z,19.01
2019-03-13T07:26:00.592Z,19.01
2019-03-13T07:27:00.490Z,19.01
2019-03-13T07:28:00.688Z,19.01
2019-03-13T07:29:13.129Z,19
2019-03-13T07:30:00.635Z,19
2019-03-13T07:31:00.575Z,18.99
2019-03-13T07:32:00.662Z,18.99
2019-03-13T07:33:00.463Z,18.99
2019-03-13T07:34:00.670Z,18.98
2019-03-13T07:35:00.573Z,18.98
2019-03-13T07:36:00.465Z,18.98
2019-03-13T07:37:00.554Z,18.97
2019-03-13T07:38:00.675Z,18.98
2019-03-13T07:39:00.502Z,18.97
2019-03-13T07:40:00.558Z,18.97
2019-03-13T07:41:00.684Z,18.97
2019-03-13T07:42:00.491Z,18.97
2019-03-13T07:43:00.510Z,18.97
2019-03-13T07:44:00.609Z,18.97
2019-03-13T07:45:00.542Z,18.97
2019-03-13T07:46:00.519Z,18.96
2019-03-13T07:47:00.637Z,18.96
2019-03-13T07:48:00.472Z,18.96
2019-03-13T07:49:00.623Z,18.96
2019-03-13T07:50:00.789Z,18.95
2019-03-13T07:51:00.464Z,18.95
2019-03-13T07:52:00.797Z,18.95
2019-03-13T07:53:00.634Z,18.95
2019-03-13T07:54:00.444Z,18.95
2019-03-13T07:55:00.678Z,18.94
2019-03-13T07:56:00.624Z,18.94
2019-03-13T07:57:00.489Z,18.94
2019-03-13T07:58:00.484Z,18.93
2019-03-13T07:59:00.691Z,18.92
2019-03-13T08:00:00.959Z,18.92
2019-03-13T08:01:00.644Z,18.92
2019-03-13T08:02:00.352Z,18.92
2019-03-13T08:03:00.514Z,18.92
2019-03-13T08:04:00.576Z,18.91
2019-03-13T08:05:00.571Z,18.91
2019-03-13T08:06:00.538Z,18.9
2019-03-13T08:07:00.671Z,18.9
2019-03-13T08:08:00.411Z,18.9
2019-03-13T08:09:00.572Z,18.9
2019-03-13T08:10:00.618Z,18.9
2019-03-13T08:11:00.503Z,18.89
2019-03-13T08:12:00.569Z,18.89
2019-03-13T08:13:00.411Z,18.88
2019-03-13T08:14:00.495Z,18.89
2019-03-13T08:15:00.746Z,18.9
2019-03-13T08:16:00.395Z,18.88
2019-03-13T08:17:00.416Z,18.89
2019-03-13T08:18:00.562Z,18.88
2019-03-13T08:19:00.470Z,18.88
2019-03-13T08:20:00.609Z,18.88
2019-03-13T08:21:00.624Z,18.87
2019-03-13T08:22:00.627Z,18.86
2019-03-13T08:23:00.639Z,18.85
2019-03-13T08:24:00.736Z,18.86
2019-03-13T08:25:00.713Z,18.86
2019-03-13T08:26:00.508Z,18.85
2019-03-13T08:27:00.369Z,18.85
2019-03-13T08:28:00.553Z,18.85
2019-03-13T08:29:00.687Z,18.85
2019-03-13T08:30:00.538Z,18.84
2019-03-13T08:31:00.518Z,18.83
2019-03-13T08:32:00.713Z,18.83
2019-03-13T08:33:00.390Z,18.82
2019-03-13T08:34:00.618Z,18.84
2019-03-13T08:35:00.779Z,18.84
2019-03-13T08:36:00.907Z,18.84
2019-03-13T08:37:00.590Z,18.84
2019-03-13T08:38:00.620Z,18.85
2019-03-13T08:39:00.506Z,18.85
2019-03-13T08:40:00.665Z,18.86
2019-03-13T08:41:00.401Z,18.87
2019-03-13T08:42:00.714Z,18.88
2019-03-13T08:43:00.935Z,18.89
2019-03-13T08:44:00.444Z,18.9
2019-03-13T08:45:00.666Z,18.9
2019-03-13T08:46:00.580Z,18.92
2019-03-13T08:47:00.458Z,18.94
2019-03-13T08:48:00.521Z,18.96
2019-03-13T08:49:00.411Z,18.97
2019-03-13T08:50:00.701Z,19
2019-03-13T08:51:00.492Z,19.02
2019-03-13T08:52:00.465Z,19.03
2019-03-13T08:53:00.521Z,19.06
2019-03-13T08:54:00.539Z,19.09
2019-03-13T08:55:00.723Z,19.09
2019-03-13T08:56:00.586Z,19.11
2019-03-13T08:57:00.531Z,19.13
2019-03-13T08:58:00.506Z,19.15
2019-03-13T08:59:00.515Z,19.17
2019-03-13T09:00:00.764Z,19.19
2019-03-13T09:01:00.605Z,19.21
2019-03-13T09:02:00.533Z,19.22
2019-03-13T09:03:00.466Z,19.25
2019-03-13T09:04:00.555Z,19.29
2019-03-13T09:05:00.798Z,19.32
2019-03-13T09:06:00.491Z,19.33
2019-03-13T09:07:00.439Z,19.33
2019-03-13T09:08:00.612Z,19.36
2019-03-13T09:09:00.514Z,19.37
2019-03-13T09:10:00.560Z,19.39
2019-03-13T09:11:00.489Z,19.39
2019-03-13T09:12:00.536Z,19.4
2019-03-13T09:13:02.376Z,19.43
2019-03-13T09:14:00.564Z,19.41
2019-03-13T09:15:00.648Z,19.42
2019-03-13T09:16:00.527Z,19.45
2019-03-13T09:17:00.348Z,19.45
2019-03-13T09:18:00.758Z,19.47
2019-03-13T09:19:00.555Z,19.49
2019-03-13T09:20:00.733Z,19.51
2019-03-13T09:21:00.540Z,19.52
2019-03-13T09:22:00.547Z,19.51
2019-03-13T09:23:00.513Z,19.52
2019-03-13T09:24:00.560Z,19.55
2019-03-13T09:25:12.941Z,19.57
2019-03-13T09:26:00.668Z,19.57
2019-03-13T09:27:00.623Z,19.58
2019-03-13T09:28:00.673Z,19.6
2019-03-13T09:29:00.381Z,19.59
2019-03-13T09:30:00.759Z,19.62
2019-03-13T09:31:00.508Z,19.63
2019-03-13T09:32:00.420Z,19.63
2019-03-13T09:33:00.616Z,19.65
2019-03-13T09:34:00.423Z,19.67
2019-03-13T09:35:00.502Z,19.69
2019-03-13T09:36:00.558Z,19.7
2019-03-13T09:37:00.367Z,19.71
2019-03-13T09:38:00.442Z,19.73
2019-03-13T09:39:00.514Z,19.73
2019-03-13T09:40:00.747Z,19.75
2019-03-13T09:41:00.405Z,19.76
2019-03-13T09:42:00.640Z,19.79
2019-03-13T09:43:00.417Z,19.8
2019-03-13T09:44:00.557Z,19.81
2019-03-13T09:45:00.587Z,19.82
2019-03-13T09:46:00.400Z,19.83
2019-03-13T09:47:00.482Z,19.84
2019-03-13T09:48:00.453Z,19.86
2019-03-13T09:49:00.504Z,19.88
2019-03-13T09:50:00.608Z,19.88
2019-03-13T09:51:00.403Z,19.89
2019-03-13T09:52:00.450Z,19.9
2019-03-13T09:53:00.488Z,19.92
2019-03-13T09:54:00.652Z,19.94
2019-03-13T09:55:04.854Z,19.95
2019-03-13T09:56:00.528Z,19.95
2019-03-13T09:57:00.313Z,19.96
2019-03-13T09:58:00.434Z,19.98
2019-03-13T09:59:00.672Z,20
2019-03-13T10:00:00.682Z,20
2019-03-13T10:01:00.477Z,20.01
2019-03-13T10:02:00.495Z,20.02
2019-03-13T10:03:00.404Z,20.02
2019-03-13T10:04:00.520Z,20.03
2019-03-13T10:05:00.536Z,20.05
2019-03-13T10:06:00.332Z,20.06
2019-03-13T10:07:00.514Z,20.06
2019-03-13T10:08:00.710Z,20.08
2019-03-13T10:09:00.488Z,20.1
2019-03-13T10:10:00.751Z,20.1
2019-03-13T10:11:00.474Z,20.11
2019-03-13T10:12:00.448Z,20.12
2019-03-13T10:13:00.453Z,20.12
2019-03-13T10:14:00.620Z,20.13
2019-03-13T10:15:00.782Z,20.13
2019-03-13T10:16:00.465Z,20.15
2019-03-13T10:17:11.585Z,20.16
2019-03-13T10:18:00.470Z,20.15
2019-03-13T10:19:00.498Z,20.14
2019-03-13T10:20:00.651Z,20.15
2019-03-13T10:21:00.475Z,20.15
2019-03-13T10:22:00.565Z,20.14
2019-03-13T10:23:00.631Z,20.19
2019-03-13T10:24:00.555Z,20.16
2019-03-13T10:25:00.576Z,20.17
2019-03-13T10:26:00.441Z,20.17
2019-03-13T10:27:00.511Z,20.17
2019-03-13T10:28:00.578Z,20.16
2019-03-13T10:29:00.307Z,20.17
2019-03-13T10:30:00.675Z,20.16
2019-03-13T10:31:00.569Z,20.16
2019-03-13T10:32:00.300Z,20.15
2019-03-13T10:33:00.487Z,20.18
2019-03-13T10:34:00.545Z,20.18
2019-03-13T10:35:00.647Z,20.19
2019-03-13T10:36:00.571Z,20.19
2019-03-13T10:37:00.592Z,20.2
2019-03-13T10:38:14.705Z,20.19
2019-03-13T10:39:00.263Z,20.21
2019-03-13T10:40:00.605Z,20.22
2019-03-13T10:41:00.807Z,20.21
2019-03-13T10:42:00.496Z,20.2
2019-03-13T10:43:00.472Z,20.2
2019-03-13T10:44:00.597Z,20.21
2019-03-13T10:45:00.599Z,20.23
2019-03-13T10:46:00.437Z,20.22
2019-03-13T10:47:00.499Z,20.23
2019-03-13T10:48:00.477Z,20.23
2019-03-13T10:49:00.485Z,20.24
2019-03-13T10:50:00.632Z,20.24
2019-03-13T10:51:00.377Z,20.24
2019-03-13T10:52:00.538Z,20.25
2019-03-13T10:53:00.517Z,20.24
2019-03-13T10:54:00.692Z,20.24
2019-03-13T10:55:00.608Z,20.23
2019-03-13T10:56:00.353Z,20.22
2019-03-13T10:57:00.428Z,20.22
2019-03-13T10:58:00.549Z,20.21
2019-03-13T10:59:00.457Z,20.21
2019-03-13T11:00:00.570Z,20.22
2019-03-13T11:01:00.521Z,20.22
2019-03-13T11:02:00.425Z,20.22
2019-03-13T11:03:00.534Z,20.22
2019-03-13T11:04:00.284Z,20.22
2019-03-13T11:05:00.741Z,20.22
2019-03-13T11:06:00.594Z,20.22
2019-03-13T11:07:00.273Z,20.22
2019-03-13T11:08:00.484Z,20.23
2019-03-13T11:09:00.577Z,20.23
2019-03-13T11:10:00.685Z,20.23
2019-03-13T11:11:00.466Z,20.24
2019-03-13T11:12:00.656Z,20.24
2019-03-13T11:13:00.443Z,20.24
2019-03-13T11:14:00.526Z,20.24
2019-03-13T11:15:00.644Z,20.24
2019-03-13T11:16:00.521Z,20.24
2019-03-13T11:17:00.553Z,20.25
2019-03-13T11:18:00.358Z,20.25
2019-03-13T11:19:00.350Z,20.26
2019-03-13T11:20:00.655Z,20.26
2019-03-13T11:21:00.364Z,20.26
2019-03-13T11:22:00.404Z,20.27
2019-03-13T11:23:00.594Z,20.28
2019-03-13T11:24:01.339Z,20.28
2019-03-13T11:25:00.582Z,20.29
2019-03-13T11:26:00.610Z,20.29
2019-03-13T11:27:00.400Z,20.29
2019-03-13T11:28:00.424Z,20.29
2019-03-13T11:29:00.350Z,20.3
2019-03-13T11:30:00.689Z,20.3
2019-03-13T11:31:00.531Z,20.3
2019-03-13T11:32:00.290Z,20.3
2019-03-13T11:33:00.476Z,20.3
2019-03-13T11:34:00.465Z,20.31
2019-03-13T11:35:00.626Z,20.31
2019-03-13T11:36:00.837Z,20.31
2019-03-13T11:37:00.447Z,20.32
2019-03-13T11:38:00.325Z,20.32
2019-03-13T11:39:00.481Z,20.32
2019-03-13T11:40:00.683Z,20.33
2019-03-13T11:41:00.362Z,20.33
2019-03-13T11:42:00.465Z,20.34
2019-03-13T11:43:00.348Z,20.34
2019-03-13T11:44:00.494Z,20.34
2019-03-13T11:45:00.548Z,20.35
2019-03-13T11:46:00.357Z,20.34
2019-03-13T11:47:00.379Z,20.35
2019-03-13T11:48:00.683Z,20.35
2019-03-13T11:49:00.366Z,20.35
2019-03-13T11:50:00.760Z,20.35
2019-03-13T11:51:00.594Z,20.35
2019-03-13T11:52:00.378Z,20.35
2019-03-13T11:53:00.420Z,20.36
2019-03-13T11:54:00.365Z,20.36
2019-03-13T11:55:00.517Z,20.36
2019-03-13T11:56:00.468Z,20.36
2019-03-13T11:57:00.505Z,20.36
2019-03-13T11:58:00.435Z,20.36
2019-03-13T11:59:00.476Z,20.36
2019-03-13T12:00:00.629Z,20.37
2019-03-13T12:01:00.621Z,20.37
2019-03-13T12:02:00.628Z,20.37
2019-03-13T12:03:00.454Z,20.37
2019-03-13T12:04:00.474Z,20.37
2019-03-13T12:05:00.662Z,20.36
2019-03-13T12:06:00.486Z,20.37
2019-03-13T12:07:00.503Z,20.37
2019-03-13T12:08:00.446Z,20.37
2019-03-13T12:09:00.476Z,20.38
2019-03-13T12:10:00.591Z,20.37
2019-03-13T12:11:00.424Z,20.37
2019-03-13T12:12:00.428Z,20.37
2019-03-13T12:13:00.570Z,20.37
2019-03-13T12:14:00.489Z,20.38
2019-03-13T12:15:00.848Z,20.38
2019-03-13T12:16:00.569Z,20.38
2019-03-13T12:17:00.363Z,20.39
2019-03-13T12:18:00.551Z,20.39
2019-03-13T12:19:00.667Z,20.39
2019-03-13T12:20:00.526Z,20.39
2019-03-13T12:21:00.585Z,20.4
2019-03-13T12:22:00.369Z,20.39
2019-03-13T12:23:00.438Z,20.39
2019-03-13T12:24:00.567Z,20.39
2019-03-13T12:25:00.602Z,20.4
2019-03-13T12:26:03.859Z,20.4
2019-03-13T12:27:00.495Z,20.41
2019-03-13T12:28:00.395Z,20.41
2019-03-13T12:29:00.391Z,20.4
2019-03-13T12:30:00.720Z,20.4
2019-03-13T12:31:00.241Z,20.4
2019-03-13T12:32:00.446Z,20.4
2019-03-13T12:33:00.598Z,20.4
2019-03-13T12:34:00.289Z,20.41
2019-03-13T12:35:00.533Z,20.41
2019-03-13T12:36:01.020Z,20.41
2019-03-13T12:37:00.413Z,20.41
2019-03-13T12:38:00.524Z,20.41
2019-03-13T12:39:00.996Z,20.43
2019-03-13T12:40:00.620Z,20.43
2019-03-13T12:41:00.442Z,20.45
2019-03-13T12:42:00.667Z,20.46
2019-03-13T12:43:00.370Z,20.47
2019-03-13T12:44:00.410Z,20.47
2019-03-13T12:45:00.657Z,20.49
2019-03-13T12:46:00.304Z,20.5
2019-03-13T12:47:00.343Z,20.5
2019-03-13T12:48:00.458Z,20.52
2019-03-13T12:49:00.323Z,20.53
2019-03-13T12:50:00.534Z,20.54
2019-03-13T12:51:00.522Z,20.54
2019-03-13T12:52:00.367Z,20.55
2019-03-13T12:53:00.485Z,20.57
2019-03-13T12:54:00.338Z,20.57
2019-03-13T12:55:03.269Z,20.58